Snyder, NE (68664)

8:04 AM CDT on June 27, 2017 (GMT -0500)
South of Dodge | | Change Station
Active Advisory: Special Statement

Elev 1400 ft 41.61 °N, 96.86 °W | Updated 12 seconds ago

Clear
Clear
57.4 °F
Feels Like 57.4 °F
N
7.8
Wind Variable Wind from SSE

Today
High -- | Low -- °F
--% Chance of Precip.
Yesterday
High -- | Low -- °F
Precip. -- in
Pressure 30.11 in
Visibility 10.0 miles
Clouds Scattered Clouds 800 ft
Dew Point 55 °F
Humidity 93%
Rainfall 0.00 in
Snow Depth Not available.
5:54 AM 9:05 PM
Waxing Crescent, 16% visible
METAR KFET 271255Z AUTO 15006KT 10SM SCT008 17/15 A3011 RMK AO2 T01650146
Pressure 30.11 in
Visibility 10.0 miles
Clouds Scattered Clouds 800 ft
Dew Point 55 °F
Humidity 93%
Rainfall 0.00 in
Snow Depth Not available.
5:54 AM 9:05 PM
Waxing Crescent, 16% visible
METAR KFET 271255Z AUTO 15006KT 10SM SCT008 17/15 A3011 RMK AO2 T01650146

Get Your Daily Forecast Email!

Thanks for signing up!

Be on the lookout for a verification email in your inbox.

You'll start receiving severe weather alerts in your inbox..

×

10-Day Weather Forecast

Almanac

Astronomy

Jun. 27, 2017 Rise Set
Actual Time
Civil Twilight
Nautical Twilight
Astronomical Twilight
Moon
Length of Visible Light
Length of Day
Tomorrow will be .
, % of the Moon is Illuminated

Today's Extremes

State Highs State Lows

Community

WunderPhotos

Category 6

Welcome to Category 6. This is the collective home for Weather Underground's featured writeups by Dr. Jeff Masters (right), Bob Henson (left), Chris Burt, and other regular contributors.

Nearby

Air Quality

  Air Quality AQ Index Pollutant
Not available.

Snow Depth

Station Depth Elevation

Earthquake Activity

City Distance Mag. Time & Date
Minimum magnitude displayed is 2.5.

Coastal Water Temperatures

Place Temperature

Stations

Nearby Weather Stations

Station Location Temp. Windchill Dew Point Humidity Wind Precip. Elev Updated Type
                   

Watches & Warnings

Special Statement
Issued: 6:01 AM CDT Jun. 27, 2017 – National Weather Service

... Patchy dense fog this morning...

Patchy, dense fog has developed this morning across parts of
southeast and east-central Nebraska and far southwest Iowa where
visibilities have been reduced to less than half a mile.
Conditions should improve by 8 or 9 am.

The variable nature of the fog will result in a rapid reduction
in visibility, making travel hazardous in localized areas this
morning.


601 am CDT Tue Jun 27 2017

... Patchy dense fog this morning...

Patchy, dense fog has developed this morning across parts of
southeast and east-central Nebraska and far southwest Iowa where
visibilities have been reduced to less than half a mile.
Conditions should improve by 8 or 9 am.

The variable nature of the fog will result in a rapid reduction
in visibility, making travel hazardous in localized areas this
morning.